Time;durP1;ratioP1;P1;durP2;ratioP2;P2;SDS_P1;SDS_P2;PMS_P1;PMS_P2;Temp;Humidity;BMP_temperature;BMP_pressure;BME280_temperature;BME280_humidity;BME280_pressure;Samples;Min_cycle;Max_cycle;Signal;HPM_P1;HPM_P2
2021/05/04 00:02:09;;;;;;;32.38;19.48;;;;;;;1.19;83.04;98287.74;1785922;79;21003;-73
2021/05/04 00:04:36;;;;;;;38.17;23.75;;;;;;;1.34;80.12;98286.44;1785870;80;21394;-73
2021/05/04 00:07:02;;;;;;;29.42;18.82;;;;;;;1.41;80.78;98285.06;1785864;79;21070;-73
2021/05/04 00:09:28;;;;;;;23.25;12.28;;;;;;;1.46;80.51;98277.25;1785670;79;21047;-72
2021/05/04 00:11:54;;;;;;;35.30;18.45;;;;;;;1.54;79.48;98276.14;1785829;79;21108;-73
2021/05/04 00:14:21;;;;;;;26.12;14.80;;;;;;;1.57;80.64;98277.88;1785929;80;21546;-73
2021/05/04 00:16:47;;;;;;;44.77;22.67;;;;;;;1.56;80.16;98278.92;1785890;79;21193;-73
2021/05/04 00:19:13;;;;;;;28.80;17.10;;;;;;;1.64;79.78;98279.18;1785823;80;21074;-73
2021/05/04 00:21:39;;;;;;;27.42;14.75;;;;;;;1.56;81.28;98278.92;1785287;79;21090;-73
2021/05/04 00:24:06;;;;;;;25.23;15.08;;;;;;;1.54;81.80;98269.47;1785265;80;21023;-73
2021/05/04 00:26:33;;;;;;;24.12;13.88;;;;;;;1.49;82.15;98267.45;1785358;79;21094;-73
2021/05/04 00:28:59;;;;;;;24.77;14.23;;;;;;;1.48;80.51;98267.67;1785227;80;21206;-73
2021/05/04 00:31:25;;;;;;;24.47;14.43;;;;;;;1.39;80.18;98270.60;1785274;79;21423;-73
2021/05/04 00:33:53;;;;;;;20.02;13.13;;;;;;;1.29;80.89;98275.59;1785263;80;21169;-73
2021/05/04 00:36:20;;;;;;;26.93;16.12;;;;;;;1.23;79.42;98265.77;1785372;79;21563;-73
2021/05/04 00:38:46;;;;;;;22.55;13.62;;;;;;;1.14;81.36;98275.05;1785308;80;21115;-73
2021/05/04 00:41:12;;;;;;;26.40;14.10;;;;;;;1.12;80.01;98277.94;1785239;79;21166;-72
2021/05/04 00:43:38;;;;;;;25.57;14.63;;;;;;;1.06;79.13;98277.45;1785127;80;21122;-73
2021/05/04 00:46:04;;;;;;;28.70;15.43;;;;;;;0.94;80.02;98268.48;1785327;79;21598;-73
2021/05/04 00:48:31;;;;;;;27.93;14.38;;;;;;;0.91;79.27;98269.40;1785320;80;21173;-73
2021/05/04 00:50:58;;;;;;;28.95;17.05;;;;;;;0.84;81.72;98266.75;1785214;79;21384;-73
2021/05/04 00:53:24;;;;;;;26.75;14.58;;;;;;;0.86;81.91;98268.72;1785255;80;21255;-73
2021/05/04 00:55:50;;;;;;;29.15;14.53;;;;;;;0.86;80.16;98271.38;1785255;80;21122;-73
2021/05/04 00:58:16;;;;;;;30.77;15.80;;;;;;;0.75;79.13;98262.69;1785303;79;21026;-73
2021/05/04 01:00:42;;;;;;;25.45;15.68;;;;;;;0.68;79.09;98267.22;1785220;80;21138;-73
2021/05/04 01:03:09;;;;;;;27.93;15.18;;;;;;;0.60;79.13;98266.96;1785319;79;21404;-73
2021/05/04 01:05:36;;;;;;;25.27;15.90;;;;;;;0.55;80.60;98267.58;1785280;80;22044;-73
2021/05/04 01:08:02;;;;;;;27.80;15.90;;;;;;;0.50;83.24;98262.55;1785152;79;21063;-73
2021/05/04 01:10:28;;;;;;;27.02;15.45;;;;;;;0.52;83.09;98268.00;1785068;79;21019;-73
2021/05/04 01:12:55;;;;;;;26.97;14.75;;;;;;;0.55;83.57;98269.42;1785292;79;21102;-73
2021/05/04 01:15:21;;;;;;;26.55;14.55;;;;;;;0.57;80.39;98264.69;1754741;80;21162;-73
2021/05/04 01:17:47;;;;;;;23.70;14.05;;;;;;;0.52;82.39;98265.85;1785202;79;21253;-73
2021/05/04 01:20:13;;;;;;;26.62;14.25;;;;;;;0.50;83.67;98259.37;1785140;80;21543;-73
2021/05/04 01:22:40;;;;;;;28.95;14.10;;;;;;;0.55;82.26;98254.75;1785189;79;21106;-73
2021/05/04 01:25:07;;;;;;;24.47;13.88;;;;;;;0.56;82.17;98252.39;1785265;80;21019;-73
2021/05/04 01:27:33;;;;;;;23.05;13.43;;;;;;;0.65;81.47;98252.98;1785202;79;21078;-73
2021/05/04 01:29:59;;;;;;;26.25;15.48;;;;;;;0.64;80.26;98248.16;1785168;80;21412;-73
2021/05/04 01:32:25;;;;;;;29.27;14.45;;;;;;;0.58;79.58;98248.17;1785070;79;21044;-73
2021/05/04 01:34:52;;;;;;;31.27;17.12;;;;;;;0.47;80.31;98248.31;1754798;80;21075;-73
2021/05/04 01:37:18;;;;;;;26.35;16.70;;;;;;;0.42;82.52;98244.92;1785176;79;21067;-72
2021/05/04 01:39:48;;;;;;;22.67;14.65;;;;;;;0.42;83.58;98243.59;1785268;80;21080;-73
2021/05/04 01:42:16;;;;;;;24.10;13.38;;;;;;;0.49;81.93;98244.92;1785260;79;22032;-73
2021/05/04 01:44:42;;;;;;;22.62;13.68;;;;;;;0.47;80.41;98241.13;1785217;79;21130;-73
2021/05/04 01:47:08;;;;;;;25.00;13.50;;;;;;;0.33;80.90;98237.37;1785184;79;21027;-73
2021/05/04 01:49:34;;;;;;;25.48;14.43;;;;;;;0.28;80.44;98232.68;1785119;80;21138;-73
2021/05/04 01:52:01;;;;;;;24.72;14.13;;;;;;;0.25;80.48;98232.56;1785182;79;21111;-73
2021/05/04 01:54:27;;;;;;;25.40;13.48;;;;;;;0.24;82.81;98230.92;1785164;80;21298;-73
2021/05/04 01:56:55;;;;;;;19.15;12.73;;;;;;;0.30;80.77;98227.95;1785190;79;21507;-73
2021/05/04 01:59:23;;;;;;;21.62;13.15;;;;;;;0.27;81.95;98221.72;1785279;80;21095;-73
2021/05/04 02:01:49;;;;;;;22.48;12.88;;;;;;;0.32;80.73;98227.73;1785138;79;21007;-73
2021/05/04 02:04:15;;;;;;;21.07;12.07;;;;;;;0.31;81.86;98223.44;1785225;80;21535;-73
2021/05/04 02:06:41;;;;;;;23.83;14.03;;;;;;;0.30;82.00;98222.63;1785189;79;22079;-73
2021/05/04 02:09:09;;;;;;;24.70;14.35;;;;;;;0.27;82.44;98224.38;1785066;80;21118;-73
2021/05/04 02:11:35;;;;;;;21.05;13.05;;;;;;;0.27;81.90;98228.38;1767216;80;21098;-73
2021/05/04 02:14:03;;;;;;;22.93;13.43;;;;;;;0.25;81.62;98227.23;1793856;80;21514;-73
2021/05/04 02:16:29;;;;;;;28.30;15.55;;;;;;;0.26;81.31;98227.56;1793732;78;21034;-73
2021/05/04 02:18:55;;;;;;;22.93;13.38;;;;;;;0.25;81.35;98225.08;1793888;79;21198;-73
2021/05/04 02:21:22;;;;;;;23.55;13.22;;;;;;;0.22;82.36;98227.66;1793780;78;21038;-73
2021/05/04 02:23:48;;;;;;;19.30;12.10;;;;;;;0.19;82.02;98225.42;1793861;80;21146;-73
2021/05/04 02:26:16;;;;;;;22.67;14.05;;;;;;;0.17;80.76;98223.48;1766957;78;21078;-73
2021/05/04 02:28:42;;;;;;;26.70;13.60;;;;;;;0.12;80.81;98227.78;1793916;80;21114;-73
2021/05/04 02:31:08;;;;;;;24.43;14.40;;;;;;;0.08;81.92;98229.21;1793727;78;21195;-73
2021/05/04 02:33:36;;;;;;;21.15;13.43;;;;;;;0.09;81.55;98222.88;1793818;80;21534;-73
2021/05/04 02:38:40;;;;;;;21.87;12.20;;;;;;;0.10;81.26;98218.67;1890189;76;22576;-71
2021/05/04 02:41:07;;;;;;;23.47;12.68;;;;;;;0.02;81.48;98214.89;1858817;77;21146;-72
2021/05/04 02:43:33;;;;;;;25.48;13.38;;;;;;;-0.02;80.69;98209.66;1827399;78;21204;-71
2021/05/04 02:46:00;;;;;;;22.15;12.15;;;;;;;-0.08;81.60;98213.17;1827361;77;21144;-71
2021/05/04 02:48:26;;;;;;;23.07;12.40;;;;;;;-0.10;81.01;98217.34;1827249;78;21070;-71
2021/05/04 02:50:52;;;;;;;22.70;11.97;;;;;;;-0.13;83.06;98219.10;1827357;78;21507;-72
2021/05/04 02:53:18;;;;;;;22.75;13.05;;;;;;;-0.12;81.53;98219.92;1827299;77;21014;-71
2021/05/04 02:55:44;;;;;;;24.75;16.70;;;;;;;-0.03;80.89;98218.67;1827401;78;22081;-71
2021/05/04 02:58:12;;;;;;;22.15;14.15;;;;;;;0.05;82.25;98209.66;1827260;77;21423;-71
2021/05/04 03:00:38;;;;;;;23.38;15.08;;;;;;;0.13;83.85;98210.77;1822293;77;21498;-72
2021/05/04 03:03:04;;;;;;;28.40;16.02;;;;;;;0.17;83.83;98203.49;1827208;77;21121;-72
2021/05/04 03:05:30;;;;;;;36.05;15.40;;;;;;;0.23;82.84;98200.48;1827385;78;21130;-72
2021/05/04 03:07:56;;;;;;;25.48;14.23;;;;;;;0.24;82.71;98195.46;1827231;77;21303;-71
2021/05/04 03:10:23;;;;;;;20.37;12.18;;;;;;;0.22;83.30;98189.52;1827234;78;21114;-72
2021/05/04 03:12:49;;;;;;;22.98;14.05;;;;;;;0.25;82.03;98193.09;1827290;77;21436;-71
2021/05/04 03:15:15;;;;;;;28.02;17.60;;;;;;;0.27;82.00;98189.22;1795246;78;21157;-72
2021/05/04 03:17:41;;;;;;;39.30;20.23;;;;;;;0.26;82.24;98187.58;1827189;77;21196;-72
2021/05/04 03:20:09;;;;;;;93.05;41.75;;;;;;;0.24;82.84;98183.47;1827254;78;22142;-71
2021/05/04 03:22:35;;;;;;;54.60;24.27;;;;;;;0.23;82.16;98181.31;1827259;77;20971;-71
2021/05/04 03:25:02;;;;;;;53.40;21.97;;;;;;;0.14;82.61;98174.58;1827294;78;21177;-71
2021/05/04 03:27:28;;;;;;;27.95;16.48;;;;;;;0.14;81.83;98169.25;1827189;77;21045;-71
2021/05/04 03:29:54;;;;;;;28.40;12.95;;;;;;;0.06;82.76;98171.31;1827284;78;20999;-71
2021/05/04 03:32:20;;;;;;;21.52;13.35;;;;;;;0.08;81.23;98166.59;1827301;77;21142;-72
2021/05/04 03:34:46;;;;;;;25.72;14.23;;;;;;;0.01;81.22;98164.48;1827268;78;21145;-71
2021/05/04 03:37:12;;;;;;;33.90;17.60;;;;;;;-0.03;80.54;98172.05;1827090;77;21074;-71
2021/05/04 03:39:38;;;;;;;33.90;21.02;;;;;;;-0.12;82.09;98159.98;1827336;78;21086;-71
2021/05/04 03:42:05;;;;;;;91.25;52.45;;;;;;;-0.10;82.28;98161.92;1827235;77;21082;-71
2021/05/04 03:44:31;;;;;;;60.98;36.55;;;;;;;-0.11;82.37;98151.78;1827239;78;21247;-72
2021/05/04 03:46:57;;;;;;;46.90;27.32;;;;;;;-0.04;82.42;98155.25;1827220;77;21046;-72
2021/05/04 03:49:23;;;;;;;24.40;15.05;;;;;;;0.02;82.07;98152.28;1826886;78;21114;-71
2021/05/04 03:51:49;;;;;;;21.80;13.13;;;;;;;0.08;81.61;98144.76;1826612;77;21060;-72
2021/05/04 03:54:16;;;;;;;22.10;13.30;;;;;;;0.08;80.92;98152.75;1826821;78;21129;-71
2021/05/04 03:56:42;;;;;;;28.87;16.10;;;;;;;0.07;81.02;98143.64;1826590;77;21567;-71
2021/05/04 03:59:08;;;;;;;26.23;15.40;;;;;;;0.11;81.67;98152.87;1826575;78;21133;-72
2021/05/04 04:01:35;;;;;;;26.82;17.42;;;;;;;0.21;81.46;98138.59;1826614;77;21102;-71
2021/05/04 04:04:03;;;;;;;27.80;14.15;;;;;;;0.28;82.75;98144.20;1826892;78;21519;-72
2021/05/04 04:06:29;;;;;;;19.80;11.88;;;;;;;0.45;81.49;98145.88;1826720;77;21015;-72
2021/05/04 04:08:55;;;;;;;18.25;12.75;;;;;;;0.57;80.64;98140.69;1826619;78;21199;-72
2021/05/04 04:11:21;;;;;;;42.93;22.90;;;;;;;0.71;81.00;98140.11;1826663;77;21625;-73
2021/05/04 04:13:47;;;;;;;25.95;14.43;;;;;;;0.87;81.78;98142.28;1826746;78;21407;-72
2021/05/04 04:16:13;;;;;;;34.78;17.27;;;;;;;1.04;81.25;98137.25;1826624;77;21180;-73
2021/05/04 04:18:39;;;;;;;22.98;14.23;;;;;;;1.24;80.79;98125.09;1826680;78;21034;-72
2021/05/04 04:21:06;;;;;;;33.63;17.40;;;;;;;1.36;80.39;98122.00;1826770;77;21277;-72
2021/05/04 04:23:32;;;;;;;38.55;23.70;;;;;;;1.40;80.11;98125.36;1826551;78;21099;-72
2021/05/04 04:25:58;;;;;;;37.30;23.25;;;;;;;1.42;79.81;98118.47;1826604;77;21161;-72
2021/05/04 04:28:24;;;;;;;27.17;18.12;;;;;;;1.39;79.76;98120.25;1826618;78;21098;-72
2021/05/04 04:30:50;;;;;;;23.27;14.63;;;;;;;1.49;78.89;98124.57;1826663;78;21134;-72
2021/05/04 04:33:26;;;;;;;30.02;13.60;;;;;;;1.46;78.89;98122.87;1826586;78;22134;-72
2021/05/04 04:35:52;;;;;;;24.35;13.95;;;;;;;1.57;79.13;98120.81;1826193;78;21106;-73
2021/05/04 04:38:19;;;;;;;23.98;13.80;;;;;;;1.72;78.96;98112.45;1826494;77;21082;-73
2021/05/04 04:40:47;;;;;;;20.80;12.85;;;;;;;1.82;78.94;98120.78;1826642;78;21538;-73
2021/05/04 04:43:13;;;;;;;20.17;11.78;;;;;;;1.91;78.50;98113.59;1826588;77;21098;-73
2021/05/04 04:45:39;;;;;;;25.90;15.95;;;;;;;2.06;78.33;98120.43;1826595;78;21402;-73
2021/05/04 04:48:06;;;;;;;23.70;12.80;;;;;;;2.21;77.97;98112.31;1826504;77;21094;-73
2021/05/04 04:50:32;;;;;;;21.50;11.38;;;;;;;2.34;77.19;98115.88;1826712;78;20975;-73
2021/05/04 04:52:59;;;;;;;18.65;11.93;;;;;;;2.41;76.56;98114.77;1826691;77;21039;-73
2021/05/04 04:55:25;;;;;;;33.90;17.50;;;;;;;2.54;76.77;98113.77;1826642;78;21146;-73
2021/05/04 04:57:52;;;;;;;18.55;12.43;;;;;;;2.58;76.79;98107.46;1826605;77;21199;-73
2021/05/04 05:00:19;;;;;;;24.72;15.88;;;;;;;2.72;75.98;98106.22;1826492;78;21149;-73
2021/05/04 05:02:45;;;;;;;26.93;15.50;;;;;;;2.80;76.39;98100.02;1826547;77;21090;-73
2021/05/04 05:05:12;;;;;;;27.87;17.30;;;;;;;2.91;75.85;98094.96;1826608;78;21155;-73
2021/05/04 05:07:38;;;;;;;30.25;18.92;;;;;;;2.85;76.76;98093.19;1826627;77;22309;-73
2021/05/04 05:10:06;;;;;;;28.10;17.15;;;;;;;2.96;77.12;98091.88;1826628;78;21199;-73
2021/05/04 05:12:32;;;;;;;25.50;16.15;;;;;;;3.10;76.36;98087.95;1826465;77;21118;-73
2021/05/04 05:15:01;;;;;;;24.23;15.85;;;;;;;3.23;76.41;98090.12;1826589;78;21130;-73
2021/05/04 05:17:27;;;;;;;30.12;17.98;;;;;;;3.33;76.77;98086.34;1826467;77;21177;-73
2021/05/04 05:19:53;;;;;;;26.12;16.48;;;;;;;3.48;77.23;98077.33;1826630;78;21086;-73
2021/05/04 05:22:19;;;;;;;24.67;15.95;;;;;;;3.71;76.78;98074.38;1826514;77;21196;-73
2021/05/04 05:24:45;;;;;;;27.98;13.88;;;;;;;3.89;75.98;98083.62;1826624;78;21042;-71
2021/05/04 05:27:11;;;;;;;23.42;13.28;;;;;;;4.12;75.81;98078.22;1826569;77;21169;-71
2021/05/04 05:29:38;;;;;;;21.62;12.78;;;;;;;4.35;75.47;98077.86;1826550;78;21153;-73
2021/05/04 05:32:04;;;;;;;14.63;9.98;;;;;;;4.59;75.09;98070.55;1826673;77;21487;-70
2021/05/04 05:34:30;;;;;;;16.07;10.28;;;;;;;4.84;74.41;98072.89;1794536;78;21195;-70
2021/05/04 05:36:57;;;;;;;19.10;11.57;;;;;;;4.89;73.69;98065.75;1826601;77;21428;-73
2021/05/04 05:39:23;;;;;;;19.60;12.18;;;;;;;5.05;72.87;98058.77;1798586;78;21091;-70
2021/05/04 05:41:49;;;;;;;25.23;14.13;;;;;;;5.15;71.65;98050.06;1795465;80;21034;-71
2021/05/04 05:44:15;;;;;;;23.83;15.08;;;;;;;5.41;72.84;98049.94;1795470;80;21119;-71
2021/05/04 05:46:41;;;;;;;20.77;13.83;;;;;;;5.48;70.77;98039.30;1795457;80;21203;-70
2021/05/04 05:49:08;;;;;;;21.93;12.45;;;;;;;5.74;72.00;98041.83;1795506;80;21071;-70
2021/05/04 05:51:34;;;;;;;27.50;14.35;;;;;;;5.87;71.79;98044.67;1795404;80;21111;-70
2021/05/04 05:54:01;;;;;;;27.82;11.18;;;;;;;5.97;71.39;98042.14;1795547;80;21421;-70
2021/05/04 05:56:27;;;;;;;21.57;9.93;;;;;;;6.17;71.27;98039.73;1795426;80;21043;-70
2021/05/04 05:58:53;;;;;;;26.20;16.70;;;;;;;6.43;70.14;98026.57;1795389;80;21253;-70
2021/05/04 06:01:19;;;;;;;18.07;11.00;;;;;;;6.72;70.45;98022.55;1795355;80;21239;-70
2021/05/04 06:03:45;;;;;;;20.62;11.65;;;;;;;6.92;68.64;98014.38;1795414;80;21146;-70
2021/05/04 06:06:11;;;;;;;13.05;8.03;;;;;;;6.95;67.73;98009.84;1795444;80;21170;-70
2021/05/04 06:08:37;;;;;;;27.48;11.30;;;;;;;7.09;66.85;98008.33;1795455;80;21020;-70
2021/05/04 06:11:04;;;;;;;25.15;13.30;;;;;;;7.24;66.61;98000.91;1795435;80;21197;-70
2021/05/04 06:13:30;;;;;;;20.57;12.00;;;;;;;7.30;64.57;97995.30;1795389;80;21039;-71
2021/05/04 06:15:56;;;;;;;19.35;9.50;;;;;;;7.29;65.40;97996.37;1795512;80;21159;-71
2021/05/04 06:18:22;;;;;;;18.12;8.93;;;;;;;7.39;63.58;97994.28;1795391;80;21194;-72
2021/05/04 06:20:48;;;;;;;24.32;9.98;;;;;;;7.33;63.89;97979.94;1795470;80;21143;-72
2021/05/04 06:23:14;;;;;;;16.17;9.05;;;;;;;7.32;63.70;97974.81;1795397;80;21203;-71
2021/05/04 06:25:40;;;;;;;21.05;11.48;;;;;;;7.32;63.75;97970.77;1795381;80;21134;-72
2021/05/04 06:28:09;;;;;;;16.85;12.07;;;;;;;7.53;64.66;97964.98;1795390;80;21080;-71
2021/05/04 06:30:36;;;;;;;18.85;10.35;;;;;;;7.82;64.37;97962.70;1795511;80;21123;-71
2021/05/04 06:33:08;;;;;;;16.65;9.83;;;;;;;8.10;63.15;97951.46;1795492;80;21071;-71
2021/05/04 06:35:37;;;;;;;18.90;9.63;;;;;;;8.22;62.44;97951.79;1794602;80;21131;-71
2021/05/04 06:38:04;;;;;;;17.92;10.18;;;;;;;8.53;61.95;97933.23;1802055;78;21416;-71
2021/05/04 06:40:31;;;;;;;16.77;9.70;;;;;;;8.79;62.49;97932.70;1826541;78;21105;-71
2021/05/04 06:42:57;;;;;;;21.55;13.45;;;;;;;9.08;62.56;97928.13;1794577;78;21027;-71
2021/05/04 06:45:23;;;;;;;20.95;9.80;;;;;;;9.32;61.31;97921.88;1826561;78;21105;-70
2021/05/04 06:47:50;;;;;;;18.32;10.13;;;;;;;9.59;59.91;97923.42;1826497;77;22047;-71
2021/05/04 06:50:16;;;;;;;13.98;9.93;;;;;;;10.02;60.54;97915.13;1826454;78;21087;-70
2021/05/04 06:52:42;;;;;;;20.72;10.10;;;;;;;10.72;59.04;97904.15;1826400;77;21109;-71
2021/05/04 06:55:09;;;;;;;16.85;9.10;;;;;;;10.72;59.04;97904.15;1826581;78;21126;-71
2021/05/04 06:57:35;;;;;;;13.40;8.58;;;;;;;10.93;55.56;97900.70;1826558;77;21467;-72
2021/05/04 07:00:05;;;;;;;16.27;9.55;;;;;;;11.14;56.77;97894.56;1826637;78;21206;-72
2021/05/04 07:02:32;;;;;;;14.43;9.13;;;;;;;11.59;56.79;97891.36;1825795;77;21118;-71
2021/05/04 07:04:58;;;;;;;19.57;12.63;;;;;;;11.83;56.58;97875.09;1826463;78;21153;-71
2021/05/04 07:07:24;;;;;;;26.68;9.50;;;;;;;12.07;53.21;97869.63;1826484;77;21110;-71
2021/05/04 07:09:50;;;;;;;374.70;37.42;;;;;;;12.27;50.56;97866.35;1826469;78;21054;-72
2021/05/04 07:12:16;;;;;;;14.75;7.25;;;;;;;12.82;52.17;97852.97;1826613;77;21257;-72
2021/05/04 07:14:42;;;;;;;12.10;7.08;;;;;;;13.63;47.74;97861.58;1826432;78;21153;-73
2021/05/04 07:17:08;;;;;;;5.85;4.35;;;;;;;14.13;46.35;97854.81;1826546;77;21030;-72
2021/05/04 07:19:38;;;;;;;7.92;4.62;;;;;;;14.53;43.54;97850.38;1826564;78;21106;-72
2021/05/04 07:22:03;;;;;;;10.27;5.37;;;;;;;14.97;44.55;97851.48;1826460;77;21133;-73
2021/05/04 07:24:29;;;;;;;11.88;6.30;;;;;;;15.36;45.21;97846.04;1826572;78;21257;-72
2021/05/04 07:26:55;;;;;;;9.35;6.95;;;;;;;15.99;42.58;97838.56;1826581;77;21106;-73
2021/05/04 07:29:21;;;;;;;9.75;5.65;;;;;;;16.41;39.62;97824.69;1826578;78;21141;-73
2021/05/04 07:31:47;;;;;;;6.97;5.25;;;;;;;16.64;37.63;97815.16;1826577;77;21415;-73
2021/05/04 07:34:13;;;;;;;6.08;4.10;;;;;;;16.90;40.10;97820.61;1826611;78;21082;-74
2021/05/04 07:36:40;;;;;;;4.08;3.27;;;;;;;17.54;36.30;97819.76;1826622;77;21515;-73
2021/05/04 07:39:06;;;;;;;6.12;3.87;;;;;;;17.69;34.66;97811.55;1825245;78;21483;-73
2021/05/04 07:41:32;;;;;;;8.08;3.12;;;;;;;17.74;34.63;97807.27;1824351;77;21118;-73
2021/05/04 07:43:59;;;;;;;4.10;3.25;;;;;;;18.02;36.21;97800.14;1824613;78;21023;-73
2021/05/04 07:46:25;;;;;;;6.87;3.90;;;;;;;18.42;33.34;97804.36;1824621;77;21038;-74
2021/05/04 07:48:53;;;;;;;11.73;4.83;;;;;;;18.45;33.04;97794.07;1824724;78;21461;-72
2021/05/04 07:51:20;;;;;;;6.62;5.17;;;;;;;18.30;31.25;97792.20;1824731;77;21602;-73
2021/05/04 07:53:47;;;;;;;5.30;3.52;;;;;;;18.25;31.60;97780.05;1824599;78;21452;-74
2021/05/04 07:56:13;;;;;;;9.85;6.60;;;;;;;18.29;32.53;97783.74;1824719;77;21510;-73
2021/05/04 07:58:40;;;;;;;11.05;4.87;;;;;;;18.79;33.18;97777.88;1824650;78;21019;-72
2021/05/04 08:01:07;;;;;;;8.20;4.70;;;;;;;18.95;30.66;97769.80;1824599;77;21243;-73
2021/05/04 08:03:34;;;;;;;13.18;4.47;;;;;;;19.08;30.23;97771.44;1824613;78;21105;-71
2021/05/04 08:06:01;;;;;;;12.82;5.12;;;;;;;19.13;30.36;97772.56;1824583;77;21134;-71
2021/05/04 08:08:27;;;;;;;18.50;4.75;;;;;;;19.36;29.40;97766.88;1824647;78;21396;-71
2021/05/04 08:10:53;;;;;;;6.08;3.00;;;;;;;19.51;28.05;97768.14;1824748;78;21538;-70
2021/05/04 08:13:20;;;;;;;19.35;5.67;;;;;;;19.63;28.15;97767.35;1824548;77;21205;-71
2021/05/04 08:15:49;;;;;;;10.10;4.28;;;;;;;19.87;27.62;97764.58;1797302;78;21086;-72
2021/05/04 08:18:16;;;;;;;;;;;;;;;20.14;27.92;97753.39;1827285;77;21514;-73
2021/05/04 08:20:52;;;;;;;6.80;4.00;;;;;;;20.71;28.22;97741.84;1824642;78;20495;-72
2021/05/04 08:23:15;;;;;;;11.35;5.33;;;;;;;20.98;26.05;97744.31;1823643;77;21479;-72
2021/05/04 08:25:42;;;;;;;11.95;4.85;;;;;;;20.83;26.27;97738.42;1824958;78;21286;-73
2021/05/04 08:28:08;;;;;;;16.62;4.12;;;;;;;20.91;27.00;97739.41;1824453;77;21035;-73
2021/05/04 08:30:34;;;;;;;14.58;4.62;;;;;;;21.78;26.13;97736.22;1824695;78;21130;-73
2021/05/04 08:33:00;;;;;;;12.20;4.53;;;;;;;21.95;27.40;97737.98;1824566;77;21102;-73
2021/05/04 08:35:28;;;;;;;36.20;4.62;;;;;;;23.02;25.94;97730.48;1824645;78;21565;-72
2021/05/04 08:37:54;;;;;;;13.62;3.90;;;;;;;23.24;24.50;97724.71;1824642;77;21181;-74
2021/05/04 08:40:21;;;;;;;11.20;6.42;;;;;;;22.92;25.24;97719.25;1826303;78;21054;-73
2021/05/04 08:42:47;;;;;;;6.15;2.87;;;;;;;23.54;21.43;97712.95;1826616;77;21066;-72
2021/05/04 08:45:14;;;;;;;14.55;4.17;;;;;;;23.02;22.91;97712.52;1826589;78;21130;-73
2021/05/04 08:47:43;;;;;;;11.12;5.78;;;;;;;23.15;23.30;97704.83;1826590;77;21090;-73
2021/05/04 08:50:12;;;;;;;256.27;169.87;;;;;;;22.97;24.21;97700.97;1826672;78;21415;-72
2021/05/04 08:52:38;;;;;;;14.00;7.37;;;;;;;22.88;22.36;97694.31;1821152;78;21606;-73
2021/05/04 08:55:05;;;;;;;19.32;14.53;;;;;;;22.29;24.16;97686.48;1826590;78;21102;-72
2021/05/04 08:57:34;;;;;;;9.18;7.25;;;;;;;22.44;23.39;97677.31;1826535;77;21122;-72
2021/05/04 08:59:59;;;;;;;5.78;3.25;;;;;;;22.21;24.20;97680.02;1826460;78;21015;-72
2021/05/04 09:02:26;;;;;;;5.60;3.20;;;;;;;23.29;22.53;97678.80;1826654;77;21192;-72
2021/05/04 09:04:56;;;;;;;6.65;3.10;;;;;;;23.45;21.97;97663.45;1826484;78;21105;-73
2021/05/04 09:07:25;;;;;;;5.60;2.98;;;;;;;23.69;22.39;97657.30;1826616;77;21499;-72
2021/05/04 09:10:26;;;;;;;8.75;2.83;;;;;;;24.70;21.27;97649.79;1826387;78;21067;-71
2021/05/04 09:21:11;;;;;;;8.88;2.30;;;;;;;27.13;19.39;97618.41;1826691;77;21059;-72
2021/05/04 09:23:43;;;;;;;7.12;3.35;;;;;;;26.55;20.31;97621.73;1826630;78;21502;-72
2021/05/04 09:26:21;;;;;;;8.05;3.75;;;;;;;26.10;20.61;97623.98;1826607;77;21050;-72
2021/05/04 09:28:52;;;;;;;5.10;2.37;;;;;;;26.84;18.45;97608.67;1823963;78;21210;-72
2021/05/04 09:31:30;;;;;;;2.92;1.85;;;;;;;26.68;19.03;97597.16;1826603;77;21187;-72
2021/05/04 09:34:07;;;;;;;4.12;2.15;;;;;;;27.18;17.30;97600.73;1826707;78;21038;-72
2021/05/04 09:36:47;;;;;;;2.77;1.50;;;;;;;25.34;19.45;97599.62;1826550;77;21102;-72
2021/05/04 09:39:25;;;;;;;3.45;2.02;;;;;;;26.82;19.37;97592.17;1825839;78;21055;-72
2021/05/04 09:41:53;;;;;;;4.65;2.15;;;;;;;27.20;18.36;97578.09;1824680;77;21269;-72
2021/05/04 09:44:41;;;;;;;2.90;2.10;;;;;;;28.33;17.54;97568.52;1824598;78;21043;-72
2021/05/04 09:47:09;;;;;;;2.58;1.85;;;;;;;29.24;15.63;97541.51;1823211;77;21079;-72
2021/05/04 09:49:37;;;;;;;3.97;1.80;;;;;;;28.57;17.03;97550.05;1824894;78;21510;-72
2021/05/04 09:55:08;;;;;;;5.53;2.02;;;;;;;28.59;17.03;97548.23;1824444;78;22069;-73
2021/05/04 09:57:43;;;;;;;3.87;2.47;;;;;;;27.99;17.64;97544.63;1797107;78;21073;-72
2021/05/04 10:00:16;;;;;;;2.40;1.32;;;;;;;28.15;17.46;97523.25;1824530;78;21023;-72
2021/05/04 10:02:42;;;;;;;2.00;1.40;;;;;;;28.24;16.79;97540.30;1824503;77;21134;-74
2021/05/04 10:05:13;;;;;;;4.33;1.75;;;;;;;28.01;17.36;97528.90;1824551;78;21407;-75
2021/05/04 10:07:39;;;;;;;2.02;1.30;;;;;;;28.52;15.63;97519.03;1824556;77;21188;-72
2021/05/04 10:10:07;;;;;;;2.52;1.62;;;;;;;28.98;15.84;97520.05;1824536;78;21090;-73
2021/05/04 10:12:34;;;;;;;2.08;1.20;;;;;;;28.98;15.35;97509.50;1824690;77;21090;-73
2021/05/04 10:15:08;;;;;;;3.27;1.40;;;;;;;29.15;14.96;97498.16;1796746;78;21511;-74
2021/05/04 10:17:36;;;;;;;4.28;1.80;;;;;;;29.82;15.41;97502.72;1824530;77;21074;-74
2021/05/04 10:20:17;;;;;;;2.15;1.22;;;;;;;29.91;14.37;97505.81;1824772;78;22261;-73
2021/05/04 10:22:43;;;;;;;4.20;1.77;;;;;;;30.08;15.07;97492.84;1824442;77;21109;-73
2021/05/04 10:25:19;;;;;;;4.00;1.70;;;;;;;30.21;14.96;97493.82;1824537;78;21073;-73
2021/05/04 10:27:45;;;;;;;3.47;1.62;;;;;;;31.08;13.88;97488.36;1796954;78;21106;-74
2021/05/04 10:30:12;;;;;;;2.47;1.80;;;;;;;31.75;13.76;97472.84;1824507;78;21043;-73
2021/05/04 10:32:51;;;;;;;2.55;1.47;;;;;;;31.75;13.76;97472.84;1797456;78;22284;-74
2021/05/04 10:35:34;;;;;;;2.98;2.17;;;;;;;31.94;13.75;97477.02;1824427;78;21460;-69
2021/05/04 10:38:15;;;;;;;3.50;1.30;;;;;;;32.10;14.08;97476.27;1824482;77;21079;-74
2021/05/04 10:40:49;;;;;;;12.70;2.33;;;;;;;32.67;13.75;97465.70;1826042;78;21378;-74
2021/05/04 10:43:27;;;;;;;3.60;1.57;;;;;;;33.38;13.29;97463.81;1822578;78;21467;-73
2021/05/04 10:45:55;;;;;;;5.50;2.27;;;;;;;33.91;12.96;97461.45;1826516;78;21255;-74
2021/05/04 10:48:42;;;;;;;7.90;2.12;;;;;;;33.94;12.63;97461.35;1826536;77;21109;-74
2021/05/04 10:51:15;;;;;;;2.27;1.98;;;;;;;33.89;11.44;97465.33;1826470;77;21046;-74
2021/05/04 10:54:01;;;;;;;2.30;1.70;;;;;;;33.12;11.24;97461.51;1825420;78;21142;-73
2021/05/04 10:56:45;;;;;;;4.80;1.70;;;;;;;32.78;12.42;97464.80;1826376;77;21034;-73
2021/05/04 10:59:35;;;;;;;4.80;1.72;;;;;;;33.19;11.97;97462.72;1826358;78;21181;-73
2021/05/04 11:02:19;;;;;;;4.53;1.70;;;;;;;32.60;11.81;97446.25;1826142;77;21071;-74
2021/05/04 11:04:47;;;;;;;2.52;1.50;;;;;;;32.61;11.37;97440.81;1826141;78;21082;-74
2021/05/04 11:07:14;;;;;;;1.90;1.27;;;;;;;33.39;10.21;97442.30;1826374;77;21079;-74
2021/05/04 11:09:44;;;;;;;7.72;2.60;;;;;;;32.48;10.53;97440.14;1794942;78;21452;-74
2021/05/04 11:12:10;;;;;;;3.35;1.72;;;;;;;31.83;10.67;97428.88;1826287;77;22202;-75
2021/05/04 11:14:39;;;;;;;3.37;1.60;;;;;;;31.55;11.44;97421.88;1768824;78;21086;-74
2021/05/04 11:17:12;;;;;;;3.55;1.60;;;;;;;32.30;11.39;97415.92;1826692;77;21086;-75
2021/05/04 11:19:41;;;;;;;2.33;1.57;;;;;;;32.06;11.88;97416.73;1826178;78;21050;-75
2021/05/04 11:22:16;;;;;;;3.33;2.25;;;;;;;32.07;10.60;97410.52;1826542;77;21042;-75
2021/05/04 11:24:46;;;;;;;4.85;1.45;;;;;;;32.10;10.99;97419.44;1826452;78;21193;-75
2021/05/04 11:27:18;;;;;;;2.55;1.50;;;;;;;31.96;10.77;97399.55;1826709;77;21094;-74
2021/05/04 11:29:46;;;;;;;2.75;1.42;;;;;;;32.26;11.61;97398.42;1826626;78;21097;-75
2021/05/04 11:32:39;;;;;;;2.90;1.75;;;;;;;32.21;11.01;97397.53;1826755;77;21082;-75
2021/05/04 11:35:07;;;;;;;4.72;1.57;;;;;;;33.49;9.86;97400.31;1826699;78;21519;-74
2021/05/04 11:37:38;;;;;;;4.03;2.02;;;;;;;32.63;10.79;97406.11;1826865;77;21479;-74
2021/05/04 11:40:09;;;;;;;3.20;2.33;;;;;;;32.83;11.23;97408.18;1826624;78;21118;-75
2021/05/04 11:42:51;;;;;;;2.22;1.37;;;;;;;33.13;10.70;97407.57;1826703;77;21093;-75
2021/05/04 11:45:29;;;;;;;2.98;2.52;;;;;;;32.99;10.71;97393.34;1826780;78;21027;-74